createdAt,value
2022-10-23T00:00:17.844Z,101309.53
2022-10-23T00:02:45.429Z,101318.38
2022-10-23T00:05:12.771Z,101313.31
2022-10-23T00:07:39.848Z,101312.94
2022-10-23T00:10:07.099Z,101312.56
2022-10-23T00:12:34.261Z,101311.22
2022-10-23T00:15:01.321Z,101309.53
2022-10-23T00:17:28.392Z,101314.97
2022-10-23T00:19:55.403Z,101311.59
2022-10-23T00:22:22.740Z,101302.22
2022-10-23T00:24:49.840Z,101313.63
2022-10-23T00:27:16.887Z,101316.44
2022-10-23T00:29:45.054Z,101314.19
2022-10-23T00:32:12.152Z,101313.69
2022-10-23T00:34:39.178Z,101312.84
2022-10-23T00:37:06.146Z,101306.06
2022-10-23T00:39:33.299Z,101307.59
2022-10-23T00:42:00.383Z,101310.44
2022-10-23T00:44:30.583Z,101309.94
2022-10-23T00:46:59.056Z,101297.09
2022-10-23T00:49:28.065Z,101304.00
2022-10-23T00:52:01.152Z,101300.66
2022-10-23T00:54:31.447Z,101314.19
2022-10-23T00:56:59.992Z,101310.47
2022-10-23T00:59:27.462Z,101302.66
2022-10-23T01:01:54.708Z,101304.19
2022-10-23T01:04:22.404Z,101304.47
2022-10-23T01:06:58.548Z,101303.50
2022-10-23T01:09:25.602Z,101309.13
2022-10-23T01:11:57.400Z,101310.78
2022-10-23T01:14:31.892Z,101308.75
2022-10-23T01:17:05.000Z,101317.56
2022-10-23T01:19:46.607Z,101313.81
2022-10-23T01:22:16.678Z,101313.81
2022-10-23T01:24:51.670Z,101318.38
2022-10-23T01:27:27.081Z,101303.69
2022-10-23T01:29:59.976Z,101288.13
2022-10-23T01:32:37.430Z,101294.88
2022-10-23T01:35:11.807Z,101302.03
2022-10-23T01:37:42.668Z,101299.81
2022-10-23T01:40:15.083Z,101306.16
2022-10-23T01:42:46.211Z,101296.53
2022-10-23T01:45:21.696Z,101287.97
2022-10-23T01:47:49.558Z,101284.59
2022-10-23T01:50:19.689Z,101296.09
2022-10-23T01:52:49.071Z,101285.09
2022-10-23T01:55:17.452Z,101285.63
2022-10-23T01:57:45.741Z,101277.47
2022-10-23T02:00:14.460Z,101276.72
2022-10-23T02:02:55.490Z,101284.59
2022-10-23T02:05:29.707Z,101289.00
2022-10-23T02:07:58.525Z,101287.16
2022-10-23T02:10:32.373Z,101279.69
2022-10-23T02:13:07.755Z,101277.66
2022-10-23T02:15:38.534Z,101274.28
2022-10-23T02:18:14.920Z,101278.19
2022-10-23T02:20:53.485Z,101279.03
2022-10-23T02:23:22.497Z,101270.22
2022-10-23T02:25:55.489Z,101279.69
2022-10-23T02:28:28.388Z,101285.09
2022-10-23T02:30:59.535Z,101283.84
2022-10-23T02:33:28.100Z,101280.88
2022-10-23T02:35:55.333Z,101289.19
2022-10-23T02:38:31.158Z,101285.78
2022-10-23T02:41:01.047Z,101284.09
2022-10-23T02:43:34.406Z,101281.72
2022-10-23T02:46:09.089Z,101283.75
2022-10-23T02:48:42.949Z,101282.91
2022-10-23T02:51:22.532Z,101271.56
2022-10-23T02:53:59.502Z,101276.81
2022-10-23T02:56:34.544Z,101274.50
2022-10-23T02:59:06.942Z,101284.22
2022-10-23T03:01:50.893Z,101268.47
2022-10-23T03:04:19.307Z,101278.53
2022-10-23T03:06:49.364Z,101277.34
2022-10-23T03:09:17.809Z,101281.06
2022-10-23T03:11:45.065Z,101271.84
2022-10-23T03:14:13.425Z,101269.38
2022-10-23T03:16:40.460Z,101277.50
2022-10-23T03:19:09.457Z,101272.09
2022-10-23T03:21:37.216Z,101281.97
2022-10-23T03:24:08.277Z,101277.16
2022-10-23T03:26:40.804Z,101272.34
2022-10-23T03:29:07.913Z,101262.78
2022-10-23T03:31:41.367Z,101275.88
2022-10-23T03:34:11.131Z,101281.66
2022-10-23T03:36:40.391Z,101284.28
2022-10-23T03:39:08.725Z,101292.06
2022-10-23T03:41:35.719Z,101291.88
2022-10-23T03:46:35.562Z,101294.59
2022-10-23T03:49:02.604Z,101289.84
2022-10-23T03:51:29.824Z,101283.50
2022-10-23T03:53:57.985Z,101289.66
2022-10-23T03:56:25.062Z,101284.59
2022-10-23T03:58:52.098Z,101279.00
2022-10-23T04:01:19.519Z,101285.06
2022-10-23T04:03:46.620Z,101282.91
2022-10-23T04:06:15.982Z,101286.63
2022-10-23T04:08:44.272Z,101285.09
2022-10-23T04:11:16.204Z,101297.56
2022-10-23T04:13:45.951Z,101297.66
2022-10-23T04:16:13.010Z,101302.72
2022-10-23T04:18:40.962Z,101299.31
2022-10-23T04:21:10.964Z,101299.50
2022-10-23T04:23:39.280Z,101304.41
2022-10-23T04:26:12.240Z,101302.53
2022-10-23T04:28:39.524Z,101311.00
2022-10-23T04:31:06.601Z,101310.47
2022-10-23T04:33:33.932Z,101303.38
2022-10-23T04:36:01.305Z,101303.38
2022-10-23T04:38:28.310Z,101306.75
2022-10-23T04:40:55.442Z,101318.00
2022-10-23T04:43:23.097Z,101326.38
2022-10-23T04:45:50.177Z,101322.00
2022-10-23T04:48:17.441Z,101316.75
2022-10-23T04:51:23.252Z,101314.88
2022-10-23T04:54:12.875Z,101309.63
2022-10-23T04:56:47.373Z,101308.94
2022-10-23T04:59:19.654Z,101301.50
2022-10-23T05:01:47.367Z,101301.69
2022-10-23T05:04:14.502Z,101297.44
2022-10-23T05:07:00.272Z,101300.75
2022-10-23T05:09:44.385Z,101296.44
2022-10-23T05:12:26.548Z,101298.56
2022-10-23T05:14:54.021Z,101298.66
2022-10-23T05:17:23.657Z,101293.41
2022-10-23T05:19:52.959Z,101291.97
2022-10-23T05:22:23.945Z,101292.88
2022-10-23T05:24:53.513Z,101310.50
2022-10-23T05:27:25.612Z,101297.13
2022-10-23T05:29:54.631Z,101301.16
2022-10-23T05:32:27.346Z,101295.69
2022-10-23T05:34:54.681Z,101313.63
2022-10-23T05:37:25.312Z,101311.81
2022-10-23T05:40:01.495Z,101312.31
2022-10-23T05:42:29.109Z,101319.72
2022-10-23T05:44:57.408Z,101320.19
2022-10-23T05:47:45.381Z,101312.50
2022-10-23T05:50:26.695Z,101312.66
2022-10-23T05:53:17.144Z,101314.94
2022-10-23T05:56:07.117Z,101317.72
2022-10-23T05:58:45.729Z,101325.59
2022-10-23T06:01:31.713Z,101324.22
2022-10-23T06:04:04.041Z,101324.06
2022-10-23T06:06:48.395Z,101331.31
2022-10-23T06:09:16.750Z,101329.47
2022-10-23T06:11:44.656Z,101338.84
2022-10-23T06:14:17.948Z,101338.25
2022-10-23T06:16:45.066Z,101331.00
2022-10-23T06:19:13.107Z,101330.53
2022-10-23T06:21:42.049Z,101341.00
2022-10-23T06:24:12.299Z,101347.34
2022-10-23T06:26:54.268Z,101351.91
2022-10-23T06:29:27.932Z,101350.53
2022-10-23T06:31:55.356Z,101358.25
2022-10-23T06:34:23.118Z,101352.09
2022-10-23T06:36:50.315Z,101339.75
2022-10-23T06:39:32.313Z,101346.19
2022-10-23T06:42:14.879Z,101355.41
2022-10-23T06:45:06.254Z,101354.31
2022-10-23T06:47:53.453Z,101360.00
2022-10-23T06:50:52.881Z,101355.19
2022-10-23T06:53:27.838Z,101362.28
2022-10-23T06:56:06.274Z,101367.03
2022-10-23T06:58:37.331Z,101363.50
2022-10-23T07:01:13.603Z,101363.13
2022-10-23T07:03:42.766Z,101360.16
2022-10-23T07:06:15.649Z,101357.03
2022-10-23T07:08:42.843Z,101362.53
2022-10-23T07:11:29.808Z,101363.44
2022-10-23T07:13:58.062Z,101370.72
2022-10-23T07:16:25.161Z,101375.31
2022-10-23T07:18:59.223Z,101374.75
2022-10-23T07:21:30.919Z,101388.47
2022-10-23T07:24:13.785Z,101393.19
2022-10-23T07:26:41.513Z,101387.75
2022-10-23T07:29:09.009Z,101391.13
2022-10-23T07:31:36.294Z,101390.84
2022-10-23T07:34:32.625Z,101396.03
2022-10-23T07:37:14.771Z,101393.78
2022-10-23T07:39:41.911Z,101395.41
2022-10-23T07:42:09.776Z,101391.78
2022-10-23T07:44:36.824Z,101397.97
2022-10-23T07:47:04.120Z,101400.63
2022-10-23T07:49:31.122Z,101403.41
2022-10-23T07:51:58.836Z,101399.09
2022-10-23T07:54:32.969Z,101393.22
2022-10-23T07:57:20.324Z,101402.84
2022-10-23T07:59:56.044Z,101402.91
2022-10-23T08:02:24.400Z,101395.34
2022-10-23T08:04:52.950Z,101406.97
2022-10-23T08:07:40.721Z,101407.03
2022-10-23T08:10:08.046Z,101407.91
2022-10-23T08:12:37.488Z,101403.09
2022-10-23T08:15:05.139Z,101412.38
2022-10-23T08:17:42.719Z,101410.91
2022-10-23T08:20:16.165Z,101412.47
2022-10-23T08:22:45.181Z,101420.75
2022-10-23T08:25:17.743Z,101407.25
2022-10-23T08:27:47.195Z,101411.09
2022-10-23T08:30:15.488Z,101423.19
2022-10-23T08:32:43.873Z,101425.09
2022-10-23T08:35:13.787Z,101416.53
2022-10-23T08:37:41.306Z,101420.31
2022-10-23T08:40:18.088Z,101419.19
2022-10-23T08:43:10.209Z,101427.50
2022-10-23T08:45:48.438Z,101410.56
2022-10-23T08:48:45.606Z,101418.81
2022-10-23T08:51:41.119Z,101410.69
2022-10-23T08:54:14.357Z,101429.25
2022-10-23T08:56:44.345Z,101420.19
2022-10-23T08:59:34.276Z,101421.03
2022-10-23T09:02:04.113Z,101413.22
2022-10-23T09:04:32.305Z,101408.28
2022-10-23T09:07:03.785Z,101413.13
2022-10-23T09:09:43.117Z,101419.28
2022-10-23T09:12:12.854Z,101421.00
2022-10-23T09:15:02.521Z,101412.22
2022-10-23T09:17:32.173Z,101402.84
2022-10-23T09:20:25.098Z,101408.53
2022-10-23T09:22:59.738Z,101409.94
2022-10-23T09:25:31.261Z,101414.22
2022-10-23T09:28:01.523Z,101410.41
2022-10-23T09:30:32.672Z,101409.59
2022-10-23T09:33:12.403Z,101408.69
2022-10-23T09:35:55.608Z,101394.19
2022-10-23T09:38:46.266Z,101404.34
2022-10-23T09:41:19.915Z,101395.69
2022-10-23T09:43:47.681Z,101401.41
2022-10-23T09:46:20.143Z,101394.00
2022-10-23T09:48:59.881Z,101386.53
2022-10-23T09:51:29.598Z,101403.22
2022-10-23T09:53:59.073Z,101388.38
2022-10-23T09:56:40.241Z,101406.00
2022-10-23T09:59:10.798Z,101411.06
2022-10-23T10:01:47.530Z,101416.66
2022-10-23T10:04:42.286Z,101424.19
2022-10-23T10:07:24.538Z,101417.69
2022-10-23T10:09:56.922Z,101404.88
2022-10-23T10:12:37.483Z,101416.44
2022-10-23T10:15:14.906Z,101410.44
2022-10-23T10:18:06.602Z,101411.13
2022-10-23T10:20:42.634Z,101412.63
2022-10-23T10:23:33.074Z,101415.41
2022-10-23T10:26:23.098Z,101417.84
2022-10-23T10:29:15.749Z,101407.53
2022-10-23T10:32:05.918Z,101406.19
2022-10-23T10:34:47.411Z,101404.41
2022-10-23T10:37:53.592Z,101401.19
2022-10-23T10:40:33.409Z,101399.50
2022-10-23T10:43:28.442Z,101396.97
2022-10-23T10:46:22.824Z,101392.81
2022-10-23T10:49:00.858Z,101393.38
2022-10-23T10:51:38.614Z,101394.47
2022-10-23T10:54:21.825Z,101391.09
2022-10-23T10:56:49.451Z,101391.94
2022-10-23T10:59:28.860Z,101388.38
2022-10-23T11:02:15.683Z,101384.50
2022-10-23T11:04:52.842Z,101378.66
2022-10-23T11:07:25.329Z,101376.34
2022-10-23T11:09:53.364Z,101373.44
2022-10-23T11:12:24.989Z,101377.78
2022-10-23T11:14:52.860Z,101374.44
2022-10-23T11:17:25.062Z,101377.50
2022-10-23T11:20:15.860Z,101365.84
2022-10-23T11:22:47.741Z,101359.06
2022-10-23T11:25:49.314Z,101348.41
2022-10-23T11:28:43.112Z,101342.28
2022-10-23T11:31:34.898Z,101360.47
2022-10-23T11:34:21.097Z,101342.81
2022-10-23T11:36:58.426Z,101330.38
2022-10-23T11:39:29.449Z,101338.13
2022-10-23T11:42:31.655Z,101326.91
2022-10-23T11:44:59.002Z,101335.34
2022-10-23T11:47:40.563Z,101336.38
2022-10-23T11:50:08.028Z,101336.09
2022-10-23T11:53:12.551Z,101332.56
2022-10-23T11:56:16.217Z,101323.81
2022-10-23T11:58:46.879Z,101329.91
2022-10-23T12:01:26.513Z,101331.06
2022-10-23T12:04:12.701Z,101321.28
2022-10-23T12:07:23.820Z,101323.75
2022-10-23T12:09:57.812Z,101315.34
2022-10-23T12:12:34.246Z,101296.88
2022-10-23T12:15:18.804Z,101314.38
2022-10-23T12:17:48.262Z,101315.88
2022-10-23T12:20:25.753Z,101320.41
2022-10-23T12:23:20.905Z,101318.00
2022-10-23T12:26:18.860Z,101326.56
2022-10-23T12:28:49.138Z,101321.31
2022-10-23T12:31:25.160Z,101316.34
2022-10-23T12:34:33.230Z,101308.91
2022-10-23T12:37:38.519Z,101301.78
2022-10-23T12:40:09.035Z,101289.50
2022-10-23T12:42:37.679Z,101287.97
2022-10-23T12:45:24.911Z,101281.44
2022-10-23T12:47:52.719Z,101284.94
2022-10-23T12:50:29.262Z,101263.69
2022-10-23T12:53:00.982Z,101273.81
2022-10-23T12:55:49.535Z,101264.53
2022-10-23T12:58:26.154Z,101267.16
2022-10-23T13:00:59.365Z,101264.78
2022-10-23T13:03:28.984Z,101261.81
2022-10-23T13:05:58.785Z,101256.50
2022-10-23T13:08:33.614Z,101248.31
2022-10-23T13:11:20.717Z,101258.19
2022-10-23T13:13:50.501Z,101239.94
2022-10-23T13:16:21.190Z,101245.50
2022-10-23T13:18:49.226Z,101234.69
2022-10-23T13:21:21.940Z,101240.53
2022-10-23T13:23:50.476Z,101230.03
2022-10-23T13:26:35.879Z,101248.13
2022-10-23T13:29:08.700Z,101240.91
2022-10-23T13:31:36.981Z,101249.31
2022-10-23T13:34:14.865Z,101249.56
2022-10-23T13:36:53.568Z,101251.59
2022-10-23T13:39:33.635Z,101248.41
2022-10-23T13:42:12.657Z,101244.66
2022-10-23T13:44:41.117Z,101245.06
2022-10-23T13:47:17.862Z,101246.06
2022-10-23T13:49:45.262Z,101245.94
2022-10-23T13:52:15.306Z,101240.72
2022-10-23T13:54:43.690Z,101237.53
2022-10-23T13:57:15.558Z,101257.09
2022-10-23T13:59:45.298Z,101246.47
2022-10-23T14:02:19.389Z,101237.19
2022-10-23T14:04:48.633Z,101245.06
2022-10-23T14:07:15.983Z,101244.03
2022-10-23T14:09:43.860Z,101247.50
2022-10-23T14:12:12.359Z,101241.94
2022-10-23T14:14:39.613Z,101246.81
2022-10-23T14:17:06.941Z,101249.84
2022-10-23T14:19:34.695Z,101242.94
2022-10-23T14:22:01.985Z,101245.75
2022-10-23T14:24:29.299Z,101256.97
2022-10-23T14:26:57.600Z,101252.53
2022-10-23T14:29:25.215Z,101256.97
2022-10-23T14:31:52.754Z,101242.31
2022-10-23T14:34:20.457Z,101243.53
2022-10-23T14:37:03.878Z,101242.44
2022-10-23T14:39:35.183Z,101251.13
2022-10-23T14:42:02.438Z,101242.44
2022-10-23T14:44:29.810Z,101253.88
2022-10-23T14:46:57.167Z,101240.44
2022-10-23T14:49:24.555Z,101246.63
2022-10-23T14:51:51.957Z,101240.91
2022-10-23T14:54:19.343Z,101254.72
2022-10-23T14:56:46.711Z,101239.75
2022-10-23T14:59:15.103Z,101250.72
2022-10-23T15:01:47.219Z,101238.41
2022-10-23T15:04:16.829Z,101246.47
2022-10-23T15:06:46.275Z,101251.53
2022-10-23T15:09:14.567Z,101245.13
2022-10-23T15:11:42.385Z,101249.25
2022-10-23T15:14:09.855Z,101238.00
2022-10-23T15:16:43.167Z,101246.56
2022-10-23T15:19:15.212Z,101244.28
2022-10-23T15:21:46.962Z,101242.84
2022-10-23T15:24:15.847Z,101245.28
2022-10-23T15:26:44.672Z,101240.72
2022-10-23T15:29:12.659Z,101245.53
2022-10-23T15:31:42.292Z,101240.47
2022-10-23T15:34:16.543Z,101245.28
2022-10-23T15:36:46.732Z,101237.16
2022-10-23T15:39:17.105Z,101237.38
2022-10-23T15:41:44.995Z,101234.84
2022-10-23T15:44:16.346Z,101234.38
2022-10-23T15:46:44.078Z,101241.94
2022-10-23T15:49:14.030Z,101236.28
2022-10-23T15:51:41.791Z,101230.78
2022-10-23T15:54:16.404Z,101231.97
2022-10-23T15:56:52.033Z,101240.44
2022-10-23T15:59:22.157Z,101238.41
2022-10-23T16:01:50.952Z,101249.31
2022-10-23T16:04:20.785Z,101245.56
2022-10-23T16:06:48.762Z,101246.84
2022-10-23T16:09:16.647Z,101248.50
2022-10-23T16:11:44.582Z,101248.13
2022-10-23T16:14:14.113Z,101248.03
2022-10-23T16:16:42.055Z,101248.16
2022-10-23T16:19:13.239Z,101258.00
2022-10-23T16:21:41.683Z,101253.59
2022-10-23T16:24:10.250Z,101255.09
2022-10-23T16:26:38.454Z,101246.97
2022-10-23T16:29:08.263Z,101251.44
2022-10-23T16:31:37.202Z,101253.66
2022-10-23T16:34:06.083Z,101249.25
2022-10-23T16:36:34.386Z,101241.69
2022-10-23T16:39:24.903Z,101260.47
2022-10-23T16:42:10.690Z,101260.16
2022-10-23T16:45:04.483Z,101257.22
2022-10-23T16:47:32.095Z,101268.09
2022-10-23T16:49:59.967Z,101267.47
2022-10-23T16:52:28.299Z,101276.13
2022-10-23T16:54:55.926Z,101264.63
2022-10-23T16:57:24.085Z,101270.00
2022-10-23T16:59:51.403Z,101270.63
2022-10-23T17:02:20.321Z,101279.91
2022-10-23T17:04:50.014Z,101277.72
2022-10-23T17:07:18.360Z,101286.66
2022-10-23T17:09:46.572Z,101278.00
2022-10-23T17:12:14.323Z,101286.19
2022-10-23T17:14:42.552Z,101296.84
2022-10-23T17:17:09.922Z,101296.72
2022-10-23T17:19:45.079Z,101297.78
2022-10-23T17:22:13.548Z,101302.69
2022-10-23T17:24:47.525Z,101301.38
2022-10-23T17:27:17.865Z,101297.88
2022-10-23T17:29:45.426Z,101295.94
2022-10-23T17:32:12.940Z,101302.47
2022-10-23T17:34:41.185Z,101303.41
2022-10-23T17:37:10.117Z,101286.66
2022-10-23T17:39:37.368Z,101302.69
2022-10-23T17:42:04.620Z,101292.72
2022-10-23T17:44:32.593Z,101293.16
2022-10-23T17:46:59.867Z,101311.94
2022-10-23T17:49:27.196Z,101307.06
2022-10-23T17:51:57.066Z,101311.59
2022-10-23T17:54:26.444Z,101303.66
2022-10-23T17:56:54.223Z,101307.91
2022-10-23T17:59:21.456Z,101313.56
2022-10-23T18:01:49.449Z,101316.31
2022-10-23T18:04:19.132Z,101312.75
2022-10-23T18:06:50.497Z,101316.81
2022-10-23T18:09:18.006Z,101312.53
2022-10-23T18:11:48.840Z,101312.50
2022-10-23T18:14:17.757Z,101309.53
2022-10-23T18:16:45.894Z,101308.16
2022-10-23T18:19:15.252Z,101305.09
2022-10-23T18:21:47.744Z,101307.81
2022-10-23T18:24:15.263Z,101308.22
2022-10-23T18:26:42.637Z,101305.88
2022-10-23T18:29:11.379Z,101301.88
2022-10-23T18:31:39.556Z,101291.53
2022-10-23T18:34:24.719Z,101299.22
2022-10-23T18:36:53.675Z,101304.81
2022-10-23T18:39:23.646Z,101305.44
2022-10-23T18:41:54.009Z,101314.09
2022-10-23T18:44:22.876Z,101309.19
2022-10-23T18:46:50.640Z,101312.41
2022-10-23T18:49:18.720Z,101302.28
2022-10-23T18:51:45.901Z,101299.28
2022-10-23T18:54:14.507Z,101299.66
2022-10-23T18:56:42.255Z,101305.03
2022-10-23T18:59:14.940Z,101305.31
2022-10-23T19:01:42.914Z,101295.47
2022-10-23T19:04:12.764Z,101295.19
2022-10-23T19:06:40.386Z,101292.47
2022-10-23T19:09:09.345Z,101293.69
2022-10-23T19:11:40.552Z,101286.66
2022-10-23T19:14:09.816Z,101291.25
2022-10-23T19:16:44.045Z,101295.03
2022-10-23T19:19:18.674Z,101291.00
2022-10-23T19:21:48.197Z,101293.69
2022-10-23T19:24:24.051Z,101301.78
2022-10-23T19:26:52.512Z,101306.50
2022-10-23T19:29:22.421Z,101301.44
2022-10-23T19:31:50.936Z,101306.22
2022-10-23T19:34:20.546Z,101317.03
2022-10-23T19:36:49.156Z,101317.56
2022-10-23T19:39:18.300Z,101319.06
2022-10-23T19:41:47.911Z,101321.69
2022-10-23T19:44:16.445Z,101315.78
2022-10-23T19:46:44.770Z,101320.19
2022-10-23T19:49:12.899Z,101315.31
2022-10-23T19:51:46.994Z,101320.28
2022-10-23T19:54:18.914Z,101326.75
2022-10-23T19:56:52.194Z,101327.47
2022-10-23T19:59:20.574Z,101329.78
2022-10-23T20:01:49.860Z,101332.94
2022-10-23T20:04:19.278Z,101334.03
2022-10-23T20:06:48.151Z,101328.97
2022-10-23T20:09:16.291Z,101331.03
2022-10-23T20:11:47.967Z,101330.88
2022-10-23T20:14:16.722Z,101323.22
2022-10-23T20:16:45.893Z,101309.34
2022-10-23T20:21:50.928Z,101310.19
2022-10-23T20:24:19.982Z,101311.88
2022-10-23T20:26:53.848Z,101306.44
2022-10-23T20:29:22.092Z,101307.03
2022-10-23T20:31:49.922Z,101309.47
2022-10-23T20:34:20.047Z,101311.88
2022-10-23T20:36:50.161Z,101318.44
2022-10-23T20:39:20.064Z,101319.69
2022-10-23T20:41:48.657Z,101325.28
2022-10-23T20:46:49.871Z,101327.00
2022-10-23T20:49:17.061Z,101334.31
2022-10-23T20:51:44.499Z,101337.50
2022-10-23T20:54:11.575Z,101329.53
2022-10-23T20:56:40.168Z,101321.56
2022-10-23T20:59:09.860Z,101309.19
2022-10-23T21:01:39.642Z,101324.78
2022-10-23T21:04:06.875Z,101331.69
2022-10-23T21:06:46.225Z,101332.78
2022-10-23T21:09:21.775Z,101334.63
2022-10-23T21:11:48.901Z,101332.94
2022-10-23T21:14:15.921Z,101340.63
2022-10-23T21:16:44.383Z,101342.47
2022-10-23T21:19:12.794Z,101351.44
2022-10-23T21:21:40.886Z,101349.00
2022-10-23T21:24:09.371Z,101348.03
2022-10-23T21:26:36.494Z,101349.59
2022-10-23T21:29:19.770Z,101346.38
2022-10-23T21:31:57.553Z,101340.19
2022-10-23T21:34:25.242Z,101339.78
2022-10-23T21:37:12.867Z,101338.44
2022-10-23T21:39:39.705Z,101338.59
2022-10-23T21:42:06.817Z,101324.38
2022-10-23T21:44:33.912Z,101319.13
2022-10-23T21:47:00.934Z,101317.28
2022-10-23T21:49:27.996Z,101305.59
2022-10-23T21:51:55.262Z,101300.00
2022-10-23T21:54:22.859Z,101296.78
2022-10-23T21:56:50.706Z,101290.84
2022-10-23T21:59:18.947Z,101297.00
2022-10-23T22:01:46.834Z,101297.59
2022-10-23T22:04:15.137Z,101303.69
2022-10-23T22:06:42.852Z,101305.66
2022-10-23T22:09:11.343Z,101315.66
2022-10-23T22:11:38.583Z,101312.38
2022-10-23T22:14:05.618Z,101312.03
2022-10-23T22:16:32.617Z,101314.22
2022-10-23T22:18:59.696Z,101321.81
2022-10-23T22:21:27.757Z,101309.75
2022-10-23T22:23:55.935Z,101302.84
2022-10-23T22:26:27.987Z,101303.72
2022-10-23T22:28:55.836Z,101306.09
2022-10-23T22:31:24.231Z,101301.84
2022-10-23T22:33:51.776Z,101304.41
2022-10-23T22:36:19.101Z,101304.47
2022-10-23T22:38:46.113Z,101292.22
2022-10-23T22:41:13.397Z,101288.69
2022-10-23T22:43:40.424Z,101281.72
2022-10-23T22:46:08.773Z,101291.34
2022-10-23T22:48:36.140Z,101285.88
2022-10-23T22:51:03.737Z,101283.44
2022-10-23T22:53:31.151Z,101279.59
2022-10-23T22:55:58.393Z,101274.81
2022-10-23T22:58:25.633Z,101276.66
2022-10-23T23:00:54.046Z,101278.41
2022-10-23T23:03:21.154Z,101282.91
2022-10-23T23:05:48.348Z,101264.66
2022-10-23T23:08:15.365Z,101271.56
2022-10-23T23:10:42.411Z,101264.13
2022-10-23T23:13:09.473Z,101263.63
2022-10-23T23:15:40.957Z,101254.66
2022-10-23T23:18:08.090Z,101270.22
2022-10-23T23:20:35.170Z,101270.22
2022-10-23T23:23:02.201Z,101270.38
2022-10-23T23:25:29.466Z,101274.09
2022-10-23T23:27:56.476Z,101269.03
2022-10-23T23:30:24.104Z,101265.66
2022-10-23T23:32:51.645Z,101267.50
2022-10-23T23:35:21.524Z,101265.91
2022-10-23T23:37:48.710Z,101268.19
2022-10-23T23:40:15.706Z,101264.81
2022-10-23T23:42:43.004Z,101276.38
2022-10-23T23:45:14.770Z,101259.06
2022-10-23T23:47:42.600Z,101268.03
2022-10-23T23:50:11.540Z,101263.88
2022-10-23T23:52:38.700Z,101265.66
2022-10-23T23:55:05.837Z,101260.06
2022-10-23T23:57:33.028Z,101259.06
